Impacts TAF Board INFO
FOR SITUATIONAL AWARENESS. NOT TO BE USED FOR FLIGHT PLANNING PURPOSES.
IDs:

KSEA - Seattle-Tacoma Intl, WA, US

Issued at 0736 UTC 22 Feb 2018
Updated at 0855 UTC 22 Feb 2018
Potential Impact None Slight Moderate High
Time0840Z 22/09Z 22/10Z 22/11Z 22/12Z 22/13Z 22/14Z 22/15Z 22/16Z 22/17Z 22/18Z 22/19Z 22/20Z 22/21Z>>
Type OBS PRVL
  [TEMP]  
PRVL PRVL PRVL PRVL PRVL PRVL PRVL PRVL PRVL PRVL PRVL PRVL
VIS 10 6
  [2]  
6 >6 >6 >6 >6 >6 >6 >6 >6 >6 >6 >6
CIG 45 35
  [4]  
35 120 120 120 120 120 120 120 120 120 250 250
Cover BKN OVC
  [OVC]  
OVC BKN BKN BKN BKN BKN BKN BKN BKN BKN BKN BKN
FltCat VFR VFR
  [LIFR]  
VFR VFR VFR VFR VFR VFR VFR VFR VFR VFR VFR VFR
WX -- BR
  [-SN BR]  
BR -- -- -- -- -- -- -- -- -- -- --
WDir 40 80
[80]
80 20 20 20 20 20 20 20 20 20 360 360
WSpd 5 5
  [5]  
5 8 8 8 8 8 8 8 8 8 8 8
WGst -- --
  [--]  
-- -- -- -- -- -- -- -- -- -- -- --

Raw TAF
KSEA 220736Z 2208/2312 08005KT 6SM BR SCT007 BKN035 OVC060
  TEMPO 2208/2210 2SM -SN BR BKN004 OVC020
  FM221100 02008KT P6SM SCT060 BKN120 BKN200
  FM222000 36008KT P6SM SCT120 BKN250
  FM230200 VRB04KT P6SM SCT120


Raw METAR
KSEA 220840Z 04005KT 10SM SCT023 BKN045 M01/M03 A3017 RMK AO2 SNE27 P0000 T10111028
KSEA 220826Z 00000KT 5SM -SN BR BKN025 BKN045 M01/M02 A3017 RMK AO2 P0000 T10111022
KSEA 220807Z VRB03KT 3SM -SN BR FEW003 SCT023 OVC038 M01/M02 A3016 RMK AO2 P0000 T10061022
KSEA 220753Z VRB04KT 3SM -SN BR SCT003 BKN008 OVC038 M01/M02 A3017 RMK AO2 SLP225 P0000 T10061022 400111033
KSEA 220724Z 08005KT 3SM -SN BR BKN003 OVC038 M01/M02 A3016 RMK AO2 P0000 T10061022
KSEA 220700Z 06007KT 2 1/2SM -SN BR SCT003 OVC033 00/M02 A3016 RMK AO2 P0000 T00001022
KSEA 220653Z 07006KT 2SM -SN BR SCT003 BKN022 OVC031 00/M02 A3016 RMK AO2 SLP223 P0000 T00001022
KSEA 220622Z VRB05KT 2SM -SN BR SCT004 OVC022 00/M02 A3016 RMK AO2 P0000 T00001022
KSEA 220614Z 08006KT 1 1/2SM -SN BR FEW004 OVC024 00/M02 A3016 RMK AO2 P0000 T00001022
KSEA 220553Z COR 13007KT 1 1/2SM -SN BR SCT006 OVC016 M01/M02 A3016 RMK AO2 SLP226 P0003 60006 4/001 T10061017 10006 21011 56008

METAR Board
Radar Display
Forecast Discussion

FOR SITUATIONAL AWARENESS. NOT TO BE USED FOR FLIGHT PLANNING PURPOSES.